Vera Bisso — WDC3027 — position and weather

sailwx.info

Track history (hours):
 
Tides and Currents Weather Stations Pressure Air Temp Water Temp Dewpoint Dewpoint Depression Visibility Wind Speed Wind Dir Waves Ship Positions

Vera Bisso

Owner: E.N. Bisso & Son, Inc, New Orleans, LA. More information available from US FCC via Universal Licensing System and Coast Guard Vessel Documentation Center.

Last reported at 2015-May-02 05:29 UTC. Time now 2015-May-06 06:25 UTC.
Position N 29°57' W 090°23'.

Length 30 m; draft 6 m.

Type: Tug. MMSI: 367001730.

Date/timePositionNaut miles runAvg speedWind from/ knotsBaromVisibWave heightAir tempDewpointWater temp
2015-May-02 05:29N 29°57' W 090°23'13 1.4
2015-May-01 20:28N 29°55' W 090°08'5 5.8
2015-May-01 19:33N 29°57' W 090°02'2 0.3
2015-May-01 12:32N 29°56' W 090°00'7 5.7
2015-May-01 11:15N 29°56' W 090°08'3 0.5
2015-May-01 04:33N 29°55' W 090°06'2 1.0
2015-May-01 02:16N 29°55' W 090°08'  
2015-Apr-27 12:05N 29°59' W 090°24'0 0.0
2015-Apr-27 11:29N 29°59' W 090°24'0 0.0
2015-Apr-27 10:19N 29°59' W 090°24'0 0.0
2015-Apr-27 09:32N 29°59' W 090°24'0 0.0
2015-Apr-27 04:29N 29°59' W 090°24'0 0.0
2015-Apr-27 03:32N 29°59' W 090°24'0 0.0
2015-Apr-26 03:05N 29°59' W 090°24'0 0.0
2015-Apr-26 02:32N 29°59' W 090°24'0 0.0
2015-Apr-26 01:17N 29°59' W 090°24'0 0.0
2015-Apr-26 00:33N 29°59' W 090°24'0 0.0
2015-Apr-25 23:33N 29°59' W 090°24'0 0.0
2015-Apr-25 22:33N 29°59' W 090°24'0 0.0
2015-Apr-25 21:33N 29°59' W 090°24'0 0.0
2015-Apr-25 20:30N 29°59' W 090°24'14 0.5
2015-Apr-24 18:27N 29°56' W 090°08'3 2.4
2015-Apr-24 17:15N 29°55' W 090°05'1 1.3
2015-Apr-24 16:25N 29°55' W 090°04'4 3.8
2015-Apr-24 15:26N 29°56' W 090°08'1 0.2
2015-Apr-24 10:13N 29°56' W 090°09'1 1.1
2015-Apr-24 09:26N 29°55' W 090°08'0 0.0
2015-Apr-24 08:23N 29°56' W 090°08'0 0.0
2015-Apr-24 07:30N 29°55' W 090°08'0 0.2
2015-Apr-24 05:06N 29°56' W 090°08'  
Track history (hours):
 
Tides and Currents Weather Stations Pressure Air Temp Water Temp Dewpoint Dewpoint Depression Visibility Wind Speed Wind Dir Waves Ship Positions

Vera Bisso

Owner: E.N. Bisso & Son, Inc, New Orleans, LA. More information available from US FCC via Universal Licensing System and Coast Guard Vessel Documentation Center.

Last reported at 2015-May-02 05:29 UTC. Time now 2015-May-06 06:25 UTC.
Position N 29°57' W 090°23'.

Length 30 m; draft 6 m.

Type: Tug. MMSI: 367001730.

Date/timePositionNaut miles runAvg speedWind from/ knotsBaromVisibWave heightAir tempDewpointWater temp
2015-May-02 05:29N 29°57' W 090°23'13 1.4
2015-May-01 20:28N 29°55' W 090°08'5 5.8
2015-May-01 19:33N 29°57' W 090°02'2 0.3
2015-May-01 12:32N 29°56' W 090°00'7 5.7
2015-May-01 11:15N 29°56' W 090°08'3 0.5
2015-May-01 04:33N 29°55' W 090°06'2 1.0
2015-May-01 02:16N 29°55' W 090°08'  
2015-Apr-27 12:05N 29°59' W 090°24'0 0.0
2015-Apr-27 11:29N 29°59' W 090°24'0 0.0
2015-Apr-27 10:19N 29°59' W 090°24'0 0.0
2015-Apr-27 09:32N 29°59' W 090°24'0 0.0
2015-Apr-27 04:29N 29°59' W 090°24'0 0.0
2015-Apr-27 03:32N 29°59' W 090°24'0 0.0
2015-Apr-26 03:05N 29°59' W 090°24'0 0.0
2015-Apr-26 02:32N 29°59' W 090°24'0 0.0
2015-Apr-26 01:17N 29°59' W 090°24'0 0.0
2015-Apr-26 00:33N 29°59' W 090°24'0 0.0
2015-Apr-25 23:33N 29°59' W 090°24'0 0.0
2015-Apr-25 22:33N 29°59' W 090°24'0 0.0
2015-Apr-25 21:33N 29°59' W 090°24'0 0.0
2015-Apr-25 20:30N 29°59' W 090°24'14 0.5
2015-Apr-24 18:27N 29°56' W 090°08'3 2.4
2015-Apr-24 17:15N 29°55' W 090°05'1 1.3
2015-Apr-24 16:25N 29°55' W 090°04'4 3.8
2015-Apr-24 15:26N 29°56' W 090°08'1 0.2
2015-Apr-24 10:13N 29°56' W 090°09'1 1.1
2015-Apr-24 09:26N 29°55' W 090°08'0 0.0
2015-Apr-24 08:23N 29°56' W 090°08'0 0.0
2015-Apr-24 07:30N 29°55' W 090°08'0 0.2
2015-Apr-24 05:06N 29°56' W 090°08'  

Dump ship's entire track history